Terminal Aerodrome Forecast
Issued by NWS Louisville, KY

Home | Current Version | Previous Version | Text Only | Print | Product List | Glossary On
Versions: 1 2 3 4 5 6 7 8 9 10 11 12 13 14
887
FTUS43 KLMK 222320
TAFLEX
TAF
KLEX 222320Z 2300/2324 14006KT P6SM FEW100 SCT250
     FM230700 14009KT P6SM VCSH SCT060 BKN100
      TEMPO 2309/2313 4SM -SHRA SCT025 BKN040
     FM231300 16010KT 6SM BR VCSH BKN025
     FM231700 18011G17KT P6SM VCSH BKN020
     FM232000 22012G18KT P6SM VCSH BKN015=

USA.gov is the U.S. government's official web portal to all federal, state and local government web resources and services.